sensor_id;sensor_type;location;lat;lon;timestamp;P1;durP1;ratioP1;P2;durP2;ratioP2
72479;SDS011;60503;43.540;-5.510;2022-08-19T10:35:45;13.20;;;4.40;;
72479;SDS011;60503;43.540;-5.510;2022-08-19T10:38:11;15.02;;;5.22;;
72479;SDS011;60503;43.540;-5.510;2022-08-19T10:40:37;13.07;;;5.50;;
72479;SDS011;60503;43.540;-5.510;2022-08-19T10:43:03;12.88;;;5.18;;
72479;SDS011;60503;43.540;-5.510;2022-08-19T10:45:28;10.23;;;4.93;;
72479;SDS011;60503;43.540;-5.510;2022-08-19T10:50:53;11.95;;;4.60;;
72479;SDS011;60503;43.540;-5.510;2022-08-19T10:53:37;10.75;;;4.20;;
72479;SDS011;60503;43.540;-5.510;2022-08-19T10:56:03;10.63;;;4.53;;
72479;SDS011;60503;43.540;-5.510;2022-08-19T11:02:10;8.48;;;4.70;;
72479;SDS011;60503;43.540;-5.510;2022-08-19T11:04:37;13.52;;;5.35;;
72479;SDS011;60503;43.540;-5.510;2022-08-19T11:07:04;12.65;;;4.55;;
72479;SDS011;60503;43.540;-5.510;2022-08-19T11:09:30;7.22;;;3.75;;
72479;SDS011;60503;43.540;-5.510;2022-08-19T11:11:57;8.70;;;4.63;;
72479;SDS011;60503;43.540;-5.510;2022-08-19T11:14:22;7.82;;;3.80;;
72479;SDS011;60503;43.540;-5.510;2022-08-19T11:16:49;8.75;;;3.45;;
72479;SDS011;60503;43.540;-5.510;2022-08-19T11:19:15;9.02;;;4.45;;
72479;SDS011;60503;43.540;-5.510;2022-08-19T13:03:50;10.48;;;3.85;;
72479;SDS011;60503;43.540;-5.510;2022-08-19T13:06:19;10.27;;;4.10;;
72479;SDS011;60503;43.540;-5.510;2022-08-19T13:08:44;16.40;;;4.70;;
72479;SDS011;60503;43.540;-5.510;2022-08-19T13:11:11;9.90;;;4.72;;
72479;SDS011;60503;43.540;-5.510;2022-08-19T13:13:42;12.40;;;4.70;;
72479;SDS011;60503;43.540;-5.510;2022-08-19T13:16:10;13.00;;;4.78;;
72479;SDS011;60503;43.540;-5.510;2022-08-19T13:18:37;12.50;;;5.07;;
72479;SDS011;60503;43.540;-5.510;2022-08-19T13:21:04;7.78;;;4.10;;
72479;SDS011;60503;43.540;-5.510;2022-08-19T13:23:32;7.72;;;4.13;;
72479;SDS011;60503;43.540;-5.510;2022-08-19T13:25:59;10.73;;;4.70;;
72479;SDS011;60503;43.540;-5.510;2022-08-19T13:28:27;9.50;;;4.20;;
72479;SDS011;60503;43.540;-5.510;2022-08-19T13:31:14;8.52;;;4.13;;
72479;SDS011;60503;43.540;-5.510;2022-08-19T13:33:59;9.98;;;4.18;;
72479;SDS011;60503;43.540;-5.510;2022-08-19T13:36:24;9.93;;;4.07;;
72479;SDS011;60503;43.540;-5.510;2022-08-19T13:38:50;7.97;;;3.67;;
72479;SDS011;60503;43.540;-5.510;2022-08-19T13:41:16;7.03;;;4.13;;
72479;SDS011;60503;43.540;-5.510;2022-08-19T13:43:43;12.35;;;3.75;;
72479;SDS011;60503;43.540;-5.510;2022-08-19T13:46:10;6.75;;;3.78;;
72479;SDS011;60503;43.540;-5.510;2022-08-19T13:48:39;8.15;;;4.15;;
72479;SDS011;60503;43.540;-5.510;2022-08-19T13:51:06;7.40;;;3.65;;
72479;SDS011;60503;43.540;-5.510;2022-08-19T13:53:35;8.70;;;3.70;;
72479;SDS011;60503;43.540;-5.510;2022-08-19T13:56:08;7.47;;;4.30;;
72479;SDS011;60503;43.540;-5.510;2022-08-19T13:58:35;7.90;;;3.90;;
72479;SDS011;60503;43.540;-5.510;2022-08-19T14:01:01;10.20;;;4.00;;
72479;SDS011;60503;43.540;-5.510;2022-08-19T14:03:26;8.18;;;3.83;;
72479;SDS011;60503;43.540;-5.510;2022-08-19T14:05:52;8.32;;;3.72;;
72479;SDS011;60503;43.540;-5.510;2022-08-19T14:08:18;12.20;;;3.85;;
72479;SDS011;60503;43.540;-5.510;2022-08-19T14:10:44;7.40;;;4.22;;
72479;SDS011;60503;43.540;-5.510;2022-08-19T14:13:12;7.80;;;3.70;;
72479;SDS011;60503;43.540;-5.510;2022-08-19T14:15:39;8.32;;;3.83;;
72479;SDS011;60503;43.540;-5.510;2022-08-19T14:18:05;9.88;;;4.13;;
72479;SDS011;60503;43.540;-5.510;2022-08-19T14:20:33;8.85;;;4.05;;
72479;SDS011;60503;43.540;-5.510;2022-08-19T14:23:00;8.95;;;3.80;;
72479;SDS011;60503;43.540;-5.510;2022-08-19T14:25:27;11.85;;;3.92;;
72479;SDS011;60503;43.540;-5.510;2022-08-19T14:27:54;7.43;;;3.88;;
72479;SDS011;60503;43.540;-5.510;2022-08-19T14:30:22;6.70;;;3.72;;
72479;SDS011;60503;43.540;-5.510;2022-08-19T14:32:56;6.97;;;3.85;;
72479;SDS011;60503;43.540;-5.510;2022-08-19T14:37:49;10.13;;;3.53;;
72479;SDS011;60503;43.540;-5.510;2022-08-19T14:40:16;6.47;;;3.75;;
72479;SDS011;60503;43.540;-5.510;2022-08-19T14:42:46;10.23;;;4.30;;
72479;SDS011;60503;43.540;-5.510;2022-08-19T14:45:13;7.60;;;3.78;;
72479;SDS011;60503;43.540;-5.510;2022-08-19T14:47:39;11.52;;;4.03;;
72479;SDS011;60503;43.540;-5.510;2022-08-19T14:50:08;7.07;;;4.00;;
72479;SDS011;60503;43.540;-5.510;2022-08-19T14:52:34;6.85;;;3.50;;
72479;SDS011;60503;43.540;-5.510;2022-08-19T14:55:00;8.52;;;4.30;;
72479;SDS011;60503;43.540;-5.510;2022-08-19T14:57:26;8.80;;;4.28;;
72479;SDS011;60503;43.540;-5.510;2022-08-19T14:59:52;10.88;;;3.50;;
72479;SDS011;60503;43.540;-5.510;2022-08-19T15:02:18;8.07;;;3.55;;
72479;SDS011;60503;43.540;-5.510;2022-08-19T15:04:45;5.32;;;3.50;;
72479;SDS011;60503;43.540;-5.510;2022-08-19T15:07:11;13.20;;;3.90;;
72479;SDS011;60503;43.540;-5.510;2022-08-19T15:09:37;9.63;;;3.83;;
72479;SDS011;60503;43.540;-5.510;2022-08-19T15:12:03;6.47;;;3.08;;
72479;SDS011;60503;43.540;-5.510;2022-08-19T15:14:30;9.13;;;3.60;;
72479;SDS011;60503;43.540;-5.510;2022-08-19T15:19:26;8.38;;;3.53;;
72479;SDS011;60503;43.540;-5.510;2022-08-19T15:21:53;7.15;;;3.13;;
72479;SDS011;60503;43.540;-5.510;2022-08-19T15:24:19;6.00;;;3.60;;
72479;SDS011;60503;43.540;-5.510;2022-08-19T15:26:45;6.13;;;3.13;;
72479;SDS011;60503;43.540;-5.510;2022-08-19T15:29:11;6.22;;;3.17;;
72479;SDS011;60503;43.540;-5.510;2022-08-19T15:31:41;5.55;;;3.22;;
72479;SDS011;60503;43.540;-5.510;2022-08-19T15:34:07;4.85;;;2.95;;
72479;SDS011;60503;43.540;-5.510;2022-08-19T15:36:33;6.75;;;3.17;;
72479;SDS011;60503;43.540;-5.510;2022-08-19T15:39:00;9.02;;;3.40;;
72479;SDS011;60503;43.540;-5.510;2022-08-19T15:41:27;8.88;;;3.13;;
72479;SDS011;60503;43.540;-5.510;2022-08-19T15:43:56;6.55;;;3.20;;
72479;SDS011;60503;43.540;-5.510;2022-08-19T15:46:28;7.57;;;3.30;;
72479;SDS011;60503;43.540;-5.510;2022-08-19T15:48:56;6.72;;;3.20;;
72479;SDS011;60503;43.540;-5.510;2022-08-19T15:51:22;7.55;;;3.55;;
72479;SDS011;60503;43.540;-5.510;2022-08-19T15:53:48;5.70;;;3.22;;
72479;SDS011;60503;43.540;-5.510;2022-08-19T15:56:14;7.57;;;3.30;;
72479;SDS011;60503;43.540;-5.510;2022-08-19T15:58:40;7.60;;;3.75;;
72479;SDS011;60503;43.540;-5.510;2022-08-19T16:01:24;5.88;;;3.45;;
72479;SDS011;60503;43.540;-5.510;2022-08-19T16:04:11;5.70;;;3.30;;
72479;SDS011;60503;43.540;-5.510;2022-08-19T16:06:56;6.55;;;3.40;;
72479;SDS011;60503;43.540;-5.510;2022-08-19T16:09:24;9.23;;;3.38;;
72479;SDS011;60503;43.540;-5.510;2022-08-19T16:11:56;8.20;;;3.15;;
72479;SDS011;60503;43.540;-5.510;2022-08-19T16:14:25;5.93;;;3.35;;
72479;SDS011;60503;43.540;-5.510;2022-08-19T16:16:51;7.70;;;3.40;;
72479;SDS011;60503;43.540;-5.510;2022-08-19T16:19:22;7.35;;;3.75;;
72479;SDS011;60503;43.540;-5.510;2022-08-19T16:21:49;7.50;;;3.40;;
72479;SDS011;60503;43.540;-5.510;2022-08-19T16:24:17;14.77;;;3.40;;
72479;SDS011;60503;43.540;-5.510;2022-08-19T16:26:44;7.55;;;3.67;;
72479;SDS011;60503;43.540;-5.510;2022-08-19T16:29:10;8.02;;;3.47;;
72479;SDS011;60503;43.540;-5.510;2022-08-19T16:31:36;8.40;;;3.25;;
72479;SDS011;60503;43.540;-5.510;2022-08-19T16:34:03;5.22;;;3.20;;
72479;SDS011;60503;43.540;-5.510;2022-08-19T16:36:29;12.95;;;3.58;;
72479;SDS011;60503;43.540;-5.510;2022-08-19T16:38:57;7.82;;;3.40;;
72479;SDS011;60503;43.540;-5.510;2022-08-19T16:41:23;9.10;;;3.40;;
72479;SDS011;60503;43.540;-5.510;2022-08-19T16:43:49;7.53;;;3.13;;
72479;SDS011;60503;43.540;-5.510;2022-08-19T16:46:18;10.73;;;3.55;;
72479;SDS011;60503;43.540;-5.510;2022-08-19T16:48:45;6.15;;;3.47;;
72479;SDS011;60503;43.540;-5.510;2022-08-19T16:51:11;6.40;;;3.63;;
72479;SDS011;60503;43.540;-5.510;2022-08-19T16:53:43;8.20;;;3.20;;
72479;SDS011;60503;43.540;-5.510;2022-08-19T16:56:09;6.75;;;3.13;;
72479;SDS011;60503;43.540;-5.510;2022-08-19T16:58:35;9.10;;;3.25;;
72479;SDS011;60503;43.540;-5.510;2022-08-19T17:01:04;9.27;;;3.28;;
72479;SDS011;60503;43.540;-5.510;2022-08-19T17:03:31;7.03;;;3.03;;
72479;SDS011;60503;43.540;-5.510;2022-08-19T17:06:00;5.32;;;2.88;;
72479;SDS011;60503;43.540;-5.510;2022-08-19T17:08:39;7.82;;;2.90;;
72479;SDS011;60503;43.540;-5.510;2022-08-19T17:11:05;6.72;;;3.58;;
72479;SDS011;60503;43.540;-5.510;2022-08-19T17:13:31;6.03;;;3.30;;
72479;SDS011;60503;43.540;-5.510;2022-08-19T17:15:57;6.95;;;3.15;;
72479;SDS011;60503;43.540;-5.510;2022-08-19T17:18:23;7.68;;;2.97;;
72479;SDS011;60503;43.540;-5.510;2022-08-19T17:20:55;5.93;;;2.78;;
72479;SDS011;60503;43.540;-5.510;2022-08-19T17:23:21;4.38;;;3.20;;
72479;SDS011;60503;43.540;-5.510;2022-08-19T17:25:47;5.80;;;3.30;;
72479;SDS011;60503;43.540;-5.510;2022-08-19T17:28:21;5.75;;;3.40;;
72479;SDS011;60503;43.540;-5.510;2022-08-19T17:30:49;7.32;;;3.42;;
72479;SDS011;60503;43.540;-5.510;2022-08-19T17:33:15;6.03;;;2.97;;
72479;SDS011;60503;43.540;-5.510;2022-08-19T17:35:41;9.00;;;3.40;;
72479;SDS011;60503;43.540;-5.510;2022-08-19T17:38:12;9.77;;;3.15;;
72479;SDS011;60503;43.540;-5.510;2022-08-19T17:40:40;6.60;;;2.60;;
72479;SDS011;60503;43.540;-5.510;2022-08-19T17:43:30;8.13;;;3.20;;
72479;SDS011;60503;43.540;-5.510;2022-08-19T17:45:59;7.68;;;3.05;;
72479;SDS011;60503;43.540;-5.510;2022-08-19T17:48:29;9.23;;;2.77;;
72479;SDS011;60503;43.540;-5.510;2022-08-19T17:50:55;12.75;;;2.90;;
72479;SDS011;60503;43.540;-5.510;2022-08-19T17:53:21;5.57;;;2.90;;
72479;SDS011;60503;43.540;-5.510;2022-08-19T17:55:51;4.63;;;2.58;;
72479;SDS011;60503;43.540;-5.510;2022-08-19T17:58:20;7.50;;;3.10;;
72479;SDS011;60503;43.540;-5.510;2022-08-19T18:00:46;4.28;;;2.70;;
72479;SDS011;60503;43.540;-5.510;2022-08-19T18:03:13;6.07;;;2.60;;
72479;SDS011;60503;43.540;-5.510;2022-08-19T18:05:41;8.00;;;3.03;;
72479;SDS011;60503;43.540;-5.510;2022-08-19T18:08:10;8.13;;;2.55;;
72479;SDS011;60503;43.540;-5.510;2022-08-19T18:10:36;4.10;;;2.38;;
72479;SDS011;60503;43.540;-5.510;2022-08-19T18:13:02;6.95;;;2.50;;
72479;SDS011;60503;43.540;-5.510;2022-08-19T18:15:30;6.85;;;2.33;;
72479;SDS011;60503;43.540;-5.510;2022-08-19T18:17:56;5.88;;;2.80;;
72479;SDS011;60503;43.540;-5.510;2022-08-19T18:20:22;5.93;;;2.38;;
72479;SDS011;60503;43.540;-5.510;2022-08-19T18:22:48;4.97;;;2.40;;
72479;SDS011;60503;43.540;-5.510;2022-08-19T18:25:24;5.95;;;2.58;;
72479;SDS011;60503;43.540;-5.510;2022-08-19T18:27:51;9.65;;;2.70;;
72479;SDS011;60503;43.540;-5.510;2022-08-19T18:30:19;8.48;;;3.08;;
72479;SDS011;60503;43.540;-5.510;2022-08-19T18:32:46;7.47;;;2.60;;
72479;SDS011;60503;43.540;-5.510;2022-08-19T18:35:17;6.78;;;2.55;;
72479;SDS011;60503;43.540;-5.510;2022-08-19T18:37:45;8.13;;;2.58;;
72479;SDS011;60503;43.540;-5.510;2022-08-19T18:40:18;7.45;;;2.45;;
72479;SDS011;60503;43.540;-5.510;2022-08-19T18:43:03;4.82;;;2.53;;
72479;SDS011;60503;43.540;-5.510;2022-08-19T18:45:48;5.43;;;2.50;;
72479;SDS011;60503;43.540;-5.510;2022-08-19T18:48:33;6.22;;;2.60;;
72479;SDS011;60503;43.540;-5.510;2022-08-19T18:51:18;5.53;;;2.50;;
72479;SDS011;60503;43.540;-5.510;2022-08-19T18:53:44;5.22;;;2.75;;
72479;SDS011;60503;43.540;-5.510;2022-08-19T18:56:12;5.18;;;2.60;;
72479;SDS011;60503;43.540;-5.510;2022-08-19T18:58:39;4.78;;;2.53;;
72479;SDS011;60503;43.540;-5.510;2022-08-19T19:01:13;8.75;;;2.75;;
72479;SDS011;60503;43.540;-5.510;2022-08-19T19:03:47;6.82;;;2.63;;
72479;SDS011;60503;43.540;-5.510;2022-08-19T19:06:21;5.43;;;2.47;;
72479;SDS011;60503;43.540;-5.510;2022-08-19T19:08:49;5.93;;;2.80;;
72479;SDS011;60503;43.540;-5.510;2022-08-19T19:11:18;3.70;;;2.55;;
72479;SDS011;60503;43.540;-5.510;2022-08-19T19:17:14;5.78;;;2.78;;
72479;SDS011;60503;43.540;-5.510;2022-08-19T19:19:40;7.95;;;3.13;;
72479;SDS011;60503;43.540;-5.510;2022-08-19T19:22:11;4.70;;;3.22;;
72479;SDS011;60503;43.540;-5.510;2022-08-19T19:24:39;6.55;;;3.20;;
72479;SDS011;60503;43.540;-5.510;2022-08-19T19:27:08;5.95;;;2.90;;
72479;SDS011;60503;43.540;-5.510;2022-08-19T19:29:36;8.13;;;3.20;;
72479;SDS011;60503;43.540;-5.510;2022-08-19T19:32:06;6.32;;;2.97;;
72479;SDS011;60503;43.540;-5.510;2022-08-19T19:34:35;8.30;;;3.65;;
72479;SDS011;60503;43.540;-5.510;2022-08-19T19:37:02;5.70;;;2.85;;
72479;SDS011;60503;43.540;-5.510;2022-08-19T19:39:27;12.90;;;3.20;;
72479;SDS011;60503;43.540;-5.510;2022-08-19T19:41:53;6.55;;;3.40;;
72479;SDS011;60503;43.540;-5.510;2022-08-19T19:44:19;6.22;;;3.13;;
72479;SDS011;60503;43.540;-5.510;2022-08-19T19:46:45;10.68;;;3.08;;
72479;SDS011;60503;43.540;-5.510;2022-08-19T19:49:11;7.97;;;2.80;;
72479;SDS011;60503;43.540;-5.510;2022-08-19T19:51:37;8.63;;;3.10;;
72479;SDS011;60503;43.540;-5.510;2022-08-19T19:54:08;7.78;;;3.33;;
72479;SDS011;60503;43.540;-5.510;2022-08-19T19:56:37;6.93;;;2.80;;
72479;SDS011;60503;43.540;-5.510;2022-08-19T19:59:07;4.30;;;2.75;;
72479;SDS011;60503;43.540;-5.510;2022-08-19T20:01:33;6.50;;;2.70;;
72479;SDS011;60503;43.540;-5.510;2022-08-19T20:03:59;4.47;;;2.33;;
72479;SDS011;60503;43.540;-5.510;2022-08-19T20:06:25;3.85;;;2.70;;
72479;SDS011;60503;43.540;-5.510;2022-08-19T20:08:53;4.53;;;2.50;;
72479;SDS011;60503;43.540;-5.510;2022-08-19T20:11:47;5.55;;;2.50;;
72479;SDS011;60503;43.540;-5.510;2022-08-19T20:14:21;5.65;;;3.40;;
72479;SDS011;60503;43.540;-5.510;2022-08-19T20:19:14;5.97;;;3.30;;
72479;SDS011;60503;43.540;-5.510;2022-08-19T20:21:43;4.88;;;3.15;;
72479;SDS011;60503;43.540;-5.510;2022-08-19T20:24:12;5.63;;;3.10;;
72479;SDS011;60503;43.540;-5.510;2022-08-19T20:26:43;7.97;;;3.50;;
72479;SDS011;60503;43.540;-5.510;2022-08-19T20:29:12;5.15;;;3.13;;
72479;SDS011;60503;43.540;-5.510;2022-08-19T20:31:40;5.70;;;3.08;;
72479;SDS011;60503;43.540;-5.510;2022-08-19T20:34:06;3.67;;;2.47;;
72479;SDS011;60503;43.540;-5.510;2022-08-19T20:36:32;2.95;;;2.45;;
72479;SDS011;60503;43.540;-5.510;2022-08-19T20:38:58;4.47;;;2.70;;
72479;SDS011;60503;43.540;-5.510;2022-08-19T20:41:24;6.03;;;2.60;;
72479;SDS011;60503;43.540;-5.510;2022-08-19T20:43:50;4.15;;;2.53;;
72479;SDS011;60503;43.540;-5.510;2022-08-19T20:46:18;5.05;;;2.50;;
72479;SDS011;60503;43.540;-5.510;2022-08-19T20:48:44;3.78;;;2.40;;
72479;SDS011;60503;43.540;-5.510;2022-08-19T20:54:31;3.47;;;2.30;;
72479;SDS011;60503;43.540;-5.510;2022-08-19T20:56:57;4.57;;;2.70;;
72479;SDS011;60503;43.540;-5.510;2022-08-19T20:59:23;6.43;;;2.60;;
72479;SDS011;60503;43.540;-5.510;2022-08-19T21:01:50;7.93;;;2.83;;
72479;SDS011;60503;43.540;-5.510;2022-08-19T21:04:17;5.40;;;2.47;;
72479;SDS011;60503;43.540;-5.510;2022-08-19T21:06:43;3.92;;;2.53;;
72479;SDS011;60503;43.540;-5.510;2022-08-19T21:09:09;3.42;;;2.10;;
72479;SDS011;60503;43.540;-5.510;2022-08-19T21:11:35;4.60;;;2.20;;
72479;SDS011;60503;43.540;-5.510;2022-08-19T21:14:00;5.30;;;2.67;;
72479;SDS011;60503;43.540;-5.510;2022-08-19T21:16:26;4.22;;;2.55;;
72479;SDS011;60503;43.540;-5.510;2022-08-19T21:18:52;6.63;;;2.95;;
72479;SDS011;60503;43.540;-5.510;2022-08-19T21:21:18;10.65;;;2.90;;
72479;SDS011;60503;43.540;-5.510;2022-08-19T21:23:43;5.95;;;2.63;;
72479;SDS011;60503;43.540;-5.510;2022-08-19T21:26:09;5.85;;;2.78;;
72479;SDS011;60503;43.540;-5.510;2022-08-19T21:28:35;5.32;;;2.97;;
72479;SDS011;60503;43.540;-5.510;2022-08-19T21:31:00;4.85;;;2.75;;
72479;SDS011;60503;43.540;-5.510;2022-08-19T21:33:27;4.82;;;2.45;;
72479;SDS011;60503;43.540;-5.510;2022-08-19T21:35:54;6.70;;;2.65;;
72479;SDS011;60503;43.540;-5.510;2022-08-19T21:38:20;5.63;;;2.50;;
72479;SDS011;60503;43.540;-5.510;2022-08-19T21:40:46;6.15;;;2.65;;
72479;SDS011;60503;43.540;-5.510;2022-08-19T21:43:12;7.00;;;2.72;;
72479;SDS011;60503;43.540;-5.510;2022-08-19T21:45:41;5.38;;;2.45;;
